createdAt,value
2018-01-15T00:00:10.960Z,20.00
2018-01-15T00:02:39.674Z,20.23
2018-01-15T00:05:12.748Z,21.87
2018-01-15T00:07:42.037Z,22.67
2018-01-15T00:10:11.540Z,23.67
2018-01-15T00:12:40.962Z,22.00
2018-01-15T00:15:09.811Z,23.10
2018-01-15T00:17:38.636Z,22.40
2018-01-15T00:20:07.589Z,22.37
2018-01-15T00:22:36.550Z,23.27
2018-01-15T00:25:05.295Z,22.93
2018-01-15T00:27:34.774Z,20.70
2018-01-15T00:30:03.582Z,22.37
2018-01-15T00:32:32.664Z,23.17
2018-01-15T00:35:01.337Z,21.67
2018-01-15T00:37:30.250Z,22.30
2018-01-15T00:39:59.125Z,22.83
2018-01-15T00:42:27.876Z,21.67
2018-01-15T00:44:56.767Z,23.47
2018-01-15T00:47:25.449Z,21.80
2018-01-15T00:49:54.086Z,21.27
2018-01-15T00:52:22.973Z,22.70
2018-01-15T00:54:51.485Z,22.93
2018-01-15T00:57:20.179Z,23.23
2018-01-15T00:59:49.688Z,22.40
2018-01-15T01:02:18.387Z,24.77
2018-01-15T01:04:47.048Z,24.50
2018-01-15T01:07:15.762Z,21.57
2018-01-15T01:09:44.383Z,24.13
2018-01-15T01:12:19.855Z,22.83
2018-01-15T01:14:48.690Z,23.80
2018-01-15T01:17:17.260Z,24.47
2018-01-15T01:19:45.929Z,24.17
2018-01-15T01:22:14.778Z,23.60
2018-01-15T01:24:43.648Z,23.00
2018-01-15T01:27:12.423Z,23.63
2018-01-15T01:29:40.987Z,24.20
2018-01-15T01:35:08.124Z,24.03
2018-01-15T01:37:36.794Z,25.30
2018-01-15T01:40:04.920Z,23.37
2018-01-15T01:42:33.564Z,25.30
2018-01-15T01:45:02.384Z,22.00
2018-01-15T01:47:30.936Z,23.50
2018-01-15T01:49:59.384Z,25.23
2018-01-15T01:52:28.087Z,24.67
2018-01-15T01:54:56.786Z,24.70
2018-01-15T01:57:25.351Z,23.67
2018-01-15T01:59:53.845Z,23.17
2018-01-15T02:02:22.410Z,25.10
2018-01-15T02:04:50.886Z,24.03
2018-01-15T02:07:19.424Z,23.37
2018-01-15T02:09:47.891Z,25.10
2018-01-15T02:12:16.573Z,25.40
2018-01-15T02:14:45.348Z,24.57
2018-01-15T02:17:14.223Z,24.43
2018-01-15T02:19:42.676Z,22.57
2018-01-15T02:22:11.196Z,26.03
2018-01-15T02:24:39.854Z,24.60
2018-01-15T02:27:08.483Z,22.90
2018-01-15T02:29:37.024Z,25.83
2018-01-15T02:32:05.736Z,24.80
2018-01-15T02:34:34.222Z,24.13
2018-01-15T02:37:02.756Z,24.50
2018-01-15T02:39:31.365Z,23.33
2018-01-15T02:42:00.084Z,23.93
2018-01-15T02:44:28.566Z,25.03
2018-01-15T02:46:57.084Z,25.27
2018-01-15T02:49:25.753Z,23.60
2018-01-15T02:51:54.234Z,24.83
2018-01-15T02:54:22.757Z,24.40
2018-01-15T02:56:51.466Z,24.07
2018-01-15T02:59:20.141Z,25.13
2018-01-15T03:01:48.636Z,24.50
2018-01-15T03:04:17.200Z,24.70
2018-01-15T03:06:45.684Z,25.47
2018-01-15T03:09:14.209Z,24.07
2018-01-15T03:11:42.873Z,26.77
2018-01-15T03:14:11.505Z,25.00
2018-01-15T03:16:40.046Z,26.50
2018-01-15T03:19:08.516Z,25.70
2018-01-15T03:21:37.197Z,23.60
2018-01-15T03:24:05.660Z,23.30
2018-01-15T03:26:34.167Z,25.10
2018-01-15T03:29:02.725Z,24.17
2018-01-15T03:31:31.335Z,24.30
2018-01-15T03:34:00.011Z,24.93
2018-01-15T03:36:28.500Z,24.43
2018-01-15T03:38:57.192Z,26.30
2018-01-15T03:41:25.672Z,23.47
2018-01-15T03:43:54.319Z,27.33
2018-01-15T03:46:22.893Z,24.00
2018-01-15T03:48:51.476Z,25.80
2018-01-15T03:51:19.973Z,25.20
2018-01-15T03:53:48.449Z,25.20
2018-01-15T03:56:16.960Z,24.07
2018-01-15T03:58:45.441Z,24.50
2018-01-15T04:01:13.986Z,25.87
2018-01-15T04:03:42.467Z,25.87
2018-01-15T04:06:11.158Z,24.00
2018-01-15T04:08:40.546Z,25.33
2018-01-15T04:11:09.071Z,26.40
2018-01-15T04:13:37.547Z,24.87
2018-01-15T04:16:06.041Z,26.80
2018-01-15T04:18:34.549Z,25.37
2018-01-15T04:21:03.066Z,24.70
2018-01-15T04:23:31.739Z,26.10
2018-01-15T04:26:00.390Z,25.90
2018-01-15T04:28:28.897Z,26.03
2018-01-15T04:30:57.416Z,25.67
2018-01-15T04:33:25.908Z,25.67
2018-01-15T04:35:54.562Z,27.47
2018-01-15T04:38:23.157Z,26.40
2018-01-15T04:40:51.783Z,25.47
2018-01-15T04:43:20.251Z,24.53
2018-01-15T04:45:48.832Z,24.77
2018-01-15T04:48:17.472Z,25.13
2018-01-15T04:50:46.012Z,25.07
2018-01-15T04:53:14.502Z,26.27
2018-01-15T04:55:42.976Z,23.70
2018-01-15T04:58:11.491Z,25.27
2018-01-15T05:03:35.220Z,26.10
2018-01-15T05:06:03.633Z,26.00
2018-01-15T05:08:31.943Z,25.43
2018-01-15T05:11:00.331Z,25.60
2018-01-15T05:13:28.763Z,25.03
2018-01-15T05:15:57.117Z,24.40
2018-01-15T05:18:25.394Z,24.30
2018-01-15T05:20:53.723Z,25.50
2018-01-15T05:23:21.998Z,26.23
2018-01-15T05:25:50.350Z,26.23
2018-01-15T05:28:18.618Z,27.47
2018-01-15T05:30:46.985Z,25.33
2018-01-15T05:33:15.330Z,24.90
2018-01-15T05:35:43.691Z,25.87
2018-01-15T05:38:11.987Z,24.87
2018-01-15T05:40:40.503Z,26.47
2018-01-15T05:43:08.787Z,26.07
2018-01-15T05:45:37.123Z,27.53
2018-01-15T05:48:05.446Z,24.83
2018-01-15T05:50:33.768Z,26.40
2018-01-15T05:53:02.060Z,25.47
2018-01-15T05:55:30.434Z,27.10
2018-01-15T05:57:58.762Z,25.17
2018-01-15T06:00:28.451Z,25.90
2018-01-15T06:02:58.008Z,25.77
2018-01-15T06:05:26.562Z,25.17
2018-01-15T06:07:54.869Z,23.87
2018-01-15T06:10:23.175Z,26.70
2018-01-15T06:12:57.706Z,25.70
2018-01-15T06:15:28.717Z,26.10
2018-01-15T06:17:57.735Z,25.13
2018-01-15T06:20:29.840Z,25.53
2018-01-15T06:22:59.470Z,27.73
2018-01-15T06:25:28.032Z,24.10
2018-01-15T06:27:56.749Z,27.13
2018-01-15T06:30:25.477Z,24.10
2018-01-15T06:32:53.808Z,24.80
2018-01-15T06:35:22.167Z,26.63
2018-01-15T06:37:50.687Z,26.40
2018-01-15T06:40:18.993Z,27.30
2018-01-15T06:42:47.430Z,27.10
2018-01-15T06:45:15.735Z,27.83
2018-01-15T06:47:44.107Z,27.00
2018-01-15T06:50:12.467Z,25.50
2018-01-15T06:52:40.971Z,26.23
2018-01-15T06:55:09.275Z,27.10
2018-01-15T06:57:37.660Z,27.77
2018-01-15T07:00:06.024Z,26.80
2018-01-15T07:02:34.387Z,26.13
2018-01-15T07:05:02.759Z,28.60
2018-01-15T07:07:31.260Z,25.33
2018-01-15T07:09:59.697Z,27.17
2018-01-15T07:12:28.214Z,28.47
2018-01-15T07:14:56.495Z,25.80
2018-01-15T07:17:25.205Z,26.87
2018-01-15T07:19:53.501Z,26.97
2018-01-15T07:22:22.086Z,25.77
2018-01-15T07:24:50.427Z,26.23
2018-01-15T07:27:18.737Z,26.00
2018-01-15T07:29:47.167Z,26.33
2018-01-15T07:32:15.661Z,26.17
2018-01-15T07:34:44.020Z,25.27
2018-01-15T07:37:12.375Z,28.10
2018-01-15T07:39:40.683Z,26.90
2018-01-15T07:42:09.019Z,27.57
2018-01-15T07:44:37.553Z,26.57
2018-01-15T07:47:05.905Z,27.50
2018-01-15T07:49:34.438Z,28.13
2018-01-15T07:52:02.849Z,26.67
2018-01-15T07:54:31.174Z,25.20
2018-01-15T07:56:59.533Z,25.00
2018-01-15T07:59:27.851Z,26.70
2018-01-15T08:01:56.238Z,25.73
2018-01-15T08:04:24.548Z,27.20
2018-01-15T08:06:52.956Z,26.90
2018-01-15T08:09:21.290Z,26.70
2018-01-15T08:11:49.621Z,25.37
2018-01-15T08:14:17.921Z,24.80
2018-01-15T08:16:46.467Z,25.60
2018-01-15T08:19:14.910Z,25.80
2018-01-15T08:21:43.285Z,25.53
2018-01-15T08:24:11.624Z,23.67
2018-01-15T08:26:39.982Z,24.30
2018-01-15T08:29:08.362Z,26.27
2018-01-15T08:31:36.739Z,24.40
2018-01-15T08:34:05.044Z,23.53
2018-01-15T08:36:33.462Z,22.37
2018-01-15T08:39:01.960Z,22.17
2018-01-15T08:41:30.490Z,22.80
2018-01-15T08:43:59.354Z,23.03
2018-01-15T08:46:27.751Z,22.63
2018-01-15T08:48:56.078Z,22.40
2018-01-15T08:51:24.451Z,20.37
2018-01-15T08:53:53.159Z,20.33
2018-01-15T08:56:21.602Z,21.50
2018-01-15T08:58:49.908Z,20.50
2018-01-15T09:01:18.340Z,21.10
2018-01-15T09:03:46.650Z,20.07
2018-01-15T09:06:15.248Z,21.60
2018-01-15T09:08:43.614Z,19.10
2018-01-15T09:11:18.660Z,20.13
2018-01-15T09:13:47.147Z,21.07
2018-01-15T09:16:15.645Z,20.60
2018-01-15T09:18:43.940Z,19.80
2018-01-15T09:21:12.268Z,19.40
2018-01-15T09:23:40.610Z,18.30
2018-01-15T09:26:09.171Z,18.67
2018-01-15T09:28:37.522Z,17.90
2018-01-15T09:31:05.842Z,19.80
2018-01-15T09:33:34.153Z,17.03
2018-01-15T09:36:02.619Z,16.77
2018-01-15T09:38:30.897Z,17.20
2018-01-15T09:40:59.212Z,20.63
2018-01-15T09:43:27.678Z,18.40
2018-01-15T09:45:56.083Z,18.37
2018-01-15T09:48:24.466Z,19.20
2018-01-15T09:50:52.793Z,17.60
2018-01-15T09:53:21.131Z,18.37
2018-01-15T09:55:49.443Z,19.10
2018-01-15T09:58:17.975Z,18.30
2018-01-15T10:00:46.462Z,16.37
2018-01-15T10:03:16.138Z,18.00
2018-01-15T10:05:44.514Z,16.77
2018-01-15T10:08:12.847Z,17.37
2018-01-15T10:10:41.419Z,17.17
2018-01-15T10:13:09.892Z,17.03
2018-01-15T10:15:38.843Z,16.27
2018-01-15T10:18:07.328Z,15.83
2018-01-15T10:20:35.724Z,15.33
2018-01-15T10:23:04.231Z,15.73
2018-01-15T10:25:32.671Z,15.37
2018-01-15T10:28:00.979Z,15.70
2018-01-15T10:30:29.337Z,15.83
2018-01-15T10:32:58.102Z,13.80
2018-01-15T10:35:27.003Z,14.03
2018-01-15T10:37:55.537Z,13.60
2018-01-15T10:40:23.970Z,14.17
2018-01-15T10:42:52.446Z,15.30
2018-01-15T10:45:20.827Z,14.67
2018-01-15T10:47:49.191Z,14.17
2018-01-15T10:50:17.727Z,13.70
2018-01-15T10:52:46.023Z,13.40
2018-01-15T10:55:14.445Z,14.30
2018-01-15T10:57:42.783Z,15.73
2018-01-15T11:00:11.208Z,17.67
2018-01-15T11:02:39.731Z,13.10
2018-01-15T11:05:08.135Z,12.40
2018-01-15T11:07:36.869Z,12.90
2018-01-15T11:10:05.590Z,12.70
2018-01-15T11:12:33.886Z,11.90
2018-01-15T11:15:02.334Z,12.40
2018-01-15T11:17:30.824Z,12.27
2018-01-15T11:19:59.254Z,11.60
2018-01-15T11:22:27.767Z,12.10
2018-01-15T11:24:56.545Z,11.60
2018-01-15T11:27:25.154Z,11.70
2018-01-15T11:29:53.468Z,11.50
2018-01-15T11:32:21.847Z,11.20
2018-01-15T11:34:50.329Z,12.47
2018-01-15T11:37:18.640Z,11.33
2018-01-15T11:39:46.954Z,12.20
2018-01-15T11:42:15.411Z,10.97
2018-01-15T11:44:43.845Z,11.60
2018-01-15T11:47:12.176Z,12.77
2018-01-15T11:49:40.480Z,10.80
2018-01-15T11:52:08.947Z,12.00
2018-01-15T11:54:37.383Z,10.60
2018-01-15T11:57:05.714Z,10.57
2018-01-15T11:59:34.117Z,10.93
2018-01-15T12:02:02.627Z,11.03
2018-01-15T12:07:05.747Z,11.60
2018-01-15T12:09:34.239Z,12.00
2018-01-15T12:12:02.953Z,11.97
2018-01-15T12:14:31.374Z,11.00
2018-01-15T12:16:59.915Z,12.57
2018-01-15T12:19:28.261Z,11.00
2018-01-15T12:21:56.583Z,11.47
2018-01-15T12:24:24.868Z,11.20
2018-01-15T12:26:53.484Z,11.10
2018-01-15T12:29:21.791Z,11.90
2018-01-15T12:31:50.342Z,10.80
2018-01-15T12:34:18.739Z,12.13
2018-01-15T12:36:47.135Z,11.90
2018-01-15T12:39:15.442Z,11.40
2018-01-15T12:41:43.886Z,11.07
2018-01-15T12:44:12.448Z,10.73
2018-01-15T12:46:40.830Z,12.27
2018-01-15T12:49:09.298Z,11.37
2018-01-15T12:51:37.682Z,11.90
2018-01-15T12:54:06.269Z,11.50
2018-01-15T12:56:34.863Z,11.50
2018-01-15T12:59:03.239Z,11.30
2018-01-15T13:01:31.655Z,11.33
2018-01-15T13:03:59.991Z,10.53
2018-01-15T13:06:37.463Z,11.10
2018-01-15T13:09:06.623Z,11.87
2018-01-15T13:11:35.060Z,10.20
2018-01-15T13:14:03.425Z,10.80
2018-01-15T13:16:31.922Z,11.40
2018-01-15T13:19:00.384Z,12.13
2018-01-15T13:21:28.935Z,11.60
2018-01-15T13:23:57.355Z,12.33
2018-01-15T13:26:25.769Z,11.43
2018-01-15T13:28:54.264Z,12.70
2018-01-15T13:31:23.033Z,11.83
2018-01-15T13:33:51.596Z,11.60
2018-01-15T13:36:20.267Z,13.30
2018-01-15T13:38:48.775Z,12.00
2018-01-15T13:41:17.112Z,12.00
2018-01-15T13:43:45.399Z,11.30
2018-01-15T13:46:13.905Z,11.23
2018-01-15T13:48:42.326Z,10.83
2018-01-15T13:51:10.678Z,11.70
2018-01-15T13:53:39.038Z,10.83
2018-01-15T13:56:07.513Z,12.13
2018-01-15T13:58:35.827Z,12.60
2018-01-15T14:01:04.185Z,10.83
2018-01-15T14:03:32.597Z,11.70
2018-01-15T14:06:01.104Z,9.57
2018-01-15T14:08:29.535Z,11.10
2018-01-15T14:10:57.917Z,11.27
2018-01-15T14:13:26.573Z,11.07
2018-01-15T14:15:54.939Z,11.70
2018-01-15T14:18:23.422Z,11.27
2018-01-15T14:20:51.984Z,12.30
2018-01-15T14:23:20.322Z,12.57
2018-01-15T14:25:49.082Z,12.23
2018-01-15T14:28:17.590Z,12.53
2018-01-15T14:30:46.095Z,11.37
2018-01-15T14:33:14.446Z,11.00
2018-01-15T14:35:42.880Z,12.73
2018-01-15T14:38:11.255Z,12.73
2018-01-15T14:40:40.202Z,11.90
2018-01-15T14:43:08.520Z,11.80
2018-01-15T14:45:37.888Z,12.47
2018-01-15T14:48:06.251Z,12.40
2018-01-15T14:50:34.707Z,12.30
2018-01-15T14:53:03.190Z,12.53
2018-01-15T14:55:31.871Z,11.83
2018-01-15T14:58:00.322Z,11.10
2018-01-15T15:00:28.793Z,12.93
2018-01-15T15:02:58.175Z,11.80
2018-01-15T15:05:26.508Z,12.07
2018-01-15T15:07:54.953Z,12.30
2018-01-15T15:10:23.649Z,11.60
2018-01-15T15:12:51.984Z,11.67
2018-01-15T15:15:20.313Z,11.73
2018-01-15T15:17:48.967Z,11.63
2018-01-15T15:20:17.303Z,10.90
2018-01-15T15:22:45.658Z,12.90
2018-01-15T15:25:14.146Z,12.90
2018-01-15T15:27:42.455Z,13.13
2018-01-15T15:30:10.828Z,12.27
2018-01-15T15:32:39.301Z,12.93
2018-01-15T15:35:07.662Z,13.60
2018-01-15T15:37:42.652Z,13.60
2018-01-15T15:40:11.160Z,13.00
2018-01-15T15:42:39.477Z,12.80
2018-01-15T15:45:08.134Z,16.13
2018-01-15T15:47:36.419Z,13.30
2018-01-15T15:50:04.959Z,13.90
2018-01-15T15:52:33.447Z,12.80
2018-01-15T15:55:01.836Z,12.40
2018-01-15T15:57:30.174Z,12.70
2018-01-15T15:59:58.553Z,12.73
2018-01-15T16:02:26.939Z,10.67
2018-01-15T16:04:55.330Z,13.80
2018-01-15T16:07:23.681Z,12.50
2018-01-15T16:09:52.075Z,11.70
2018-01-15T16:12:20.594Z,11.90
2018-01-15T16:14:49.363Z,11.90
2018-01-15T16:17:18.018Z,11.93
2018-01-15T16:19:46.728Z,12.07
2018-01-15T16:22:34.419Z,11.20
2018-01-15T16:25:03.107Z,11.30
2018-01-15T16:27:31.542Z,10.77
2018-01-15T16:30:00.019Z,11.57
2018-01-15T16:32:28.519Z,11.07
2018-01-15T16:34:56.954Z,11.80
2018-01-15T16:37:25.294Z,12.47
2018-01-15T16:39:53.876Z,11.80
2018-01-15T16:42:22.238Z,11.43
2018-01-15T16:44:50.715Z,12.53
2018-01-15T16:47:19.104Z,11.90
2018-01-15T16:49:47.468Z,12.03
2018-01-15T16:52:15.952Z,10.93
2018-01-15T16:54:44.402Z,11.60
2018-01-15T16:57:12.938Z,12.70
2018-01-15T16:59:41.324Z,12.30
2018-01-15T17:02:09.656Z,13.13
2018-01-15T17:04:38.135Z,12.10
2018-01-15T17:07:06.451Z,13.50
2018-01-15T17:09:34.806Z,13.00
2018-01-15T17:12:03.166Z,13.43
2018-01-15T17:14:31.485Z,12.13
2018-01-15T17:16:59.834Z,11.67
2018-01-15T17:19:28.128Z,12.70
2018-01-15T17:21:56.487Z,13.60
2018-01-15T17:24:24.955Z,14.13
2018-01-15T17:26:59.720Z,13.97
2018-01-15T17:29:28.222Z,11.13
2018-01-15T17:31:56.747Z,14.20
2018-01-15T17:34:25.083Z,14.60
2018-01-15T17:36:53.534Z,14.43
2018-01-15T17:39:21.859Z,12.93
2018-01-15T17:41:50.208Z,12.60
2018-01-15T17:44:18.518Z,13.43
2018-01-15T17:46:47.034Z,11.97
2018-01-15T17:49:15.297Z,13.10
2018-01-15T17:51:43.614Z,11.90
2018-01-15T17:54:11.888Z,12.67
2018-01-15T17:56:40.242Z,13.83
2018-01-15T17:59:08.594Z,12.87
2018-01-15T18:01:37.107Z,12.27
2018-01-15T18:04:05.496Z,13.13
2018-01-15T18:06:36.746Z,13.60
2018-01-15T18:09:05.196Z,13.70
2018-01-15T18:11:33.568Z,13.20
2018-01-15T18:14:02.167Z,12.73
2018-01-15T18:16:30.496Z,13.37
2018-01-15T18:18:59.068Z,13.53
2018-01-15T18:21:27.838Z,11.50
2018-01-15T18:23:56.206Z,12.80
2018-01-15T18:26:24.742Z,13.60
2018-01-15T18:28:53.222Z,12.70
2018-01-15T18:31:21.751Z,12.90
2018-01-15T18:33:51.183Z,12.93
2018-01-15T18:36:19.624Z,12.83
2018-01-15T18:38:47.940Z,14.40
2018-01-15T18:41:16.984Z,12.57
2018-01-15T18:43:45.454Z,12.60
2018-01-15T18:46:14.350Z,13.93
2018-01-15T18:48:42.809Z,14.80
2018-01-15T18:51:11.754Z,13.73
2018-01-15T18:53:41.191Z,12.43
2018-01-15T18:56:09.584Z,12.27
2018-01-15T18:58:38.223Z,14.50
2018-01-15T19:01:06.809Z,12.13
2018-01-15T19:03:36.264Z,13.87
2018-01-15T19:06:04.617Z,12.60
2018-01-15T19:08:33.036Z,13.10
2018-01-15T19:11:01.532Z,12.37
2018-01-15T19:13:29.869Z,14.00
2018-01-15T19:15:58.232Z,14.27
2018-01-15T19:18:26.738Z,14.13
2018-01-15T19:21:00.701Z,11.67
2018-01-15T19:23:31.995Z,15.37
2018-01-15T19:26:00.395Z,13.20
2018-01-15T19:28:35.291Z,13.53
2018-01-15T19:31:03.880Z,13.53
2018-01-15T19:33:32.596Z,13.80
2018-01-15T19:36:01.432Z,13.63
2018-01-15T19:38:29.991Z,13.30
2018-01-15T19:40:58.376Z,13.13
2018-01-15T19:43:26.968Z,12.27
2018-01-15T19:46:00.604Z,13.70
2018-01-15T19:50:36.023Z,13.60
2018-01-15T19:54:08.342Z,13.73
2018-01-15T19:57:40.159Z,13.13
2018-01-15T20:02:16.507Z,13.30
2018-01-15T20:06:55.794Z,14.30
2018-01-15T20:11:33.927Z,14.43
2018-01-15T20:14:02.343Z,14.73
2018-01-15T20:16:30.826Z,14.53
2018-01-15T20:19:01.156Z,14.90
2018-01-15T20:21:30.040Z,14.57
2018-01-15T20:23:58.399Z,15.30
2018-01-15T20:26:27.236Z,15.50
2018-01-15T20:28:55.516Z,14.40
2018-01-15T20:31:23.944Z,13.80
2018-01-15T20:33:52.462Z,15.00
2018-01-15T20:36:20.909Z,15.77
2018-01-15T20:38:49.270Z,17.60
2018-01-15T20:41:17.719Z,16.30
2018-01-15T20:43:46.096Z,13.10
2018-01-15T20:46:14.496Z,14.27
2018-01-15T20:48:44.071Z,14.43
2018-01-15T20:51:15.035Z,11.70
2018-01-15T20:53:45.422Z,12.80
2018-01-15T20:56:16.788Z,14.87
2018-01-15T20:58:45.282Z,14.80
2018-01-15T21:01:13.742Z,12.90
2018-01-15T21:03:42.260Z,13.07
2018-01-15T21:06:10.619Z,14.17
2018-01-15T21:08:38.950Z,13.53
2018-01-15T21:11:07.452Z,15.33
2018-01-15T21:13:35.817Z,14.20
2018-01-15T21:16:04.388Z,14.23
2018-01-15T21:18:32.859Z,13.80
2018-01-15T21:21:01.211Z,13.87
2018-01-15T21:23:29.682Z,13.60
2018-01-15T21:25:58.163Z,13.20
2018-01-15T21:28:26.479Z,13.10
2018-01-15T21:30:55.001Z,13.40
2018-01-15T21:33:24.120Z,12.00
2018-01-15T21:35:52.507Z,13.30
2018-01-15T21:38:20.874Z,14.43
2018-01-15T21:40:49.430Z,12.90
2018-01-15T21:43:18.076Z,12.93
2018-01-15T21:45:46.401Z,11.43
2018-01-15T21:48:15.607Z,12.33
2018-01-15T21:50:44.206Z,12.27
2018-01-15T21:53:13.434Z,13.27
2018-01-15T21:55:41.900Z,11.87
2018-01-15T21:58:10.405Z,11.63
2018-01-15T22:00:40.417Z,12.07
2018-01-15T22:03:09.501Z,13.93
2018-01-15T22:05:38.010Z,12.77
2018-01-15T22:08:07.035Z,13.37
2018-01-15T22:10:35.637Z,12.10
2018-01-15T22:13:04.169Z,12.90
2018-01-15T22:15:32.547Z,12.13
2018-01-15T22:18:00.893Z,11.97
2018-01-15T22:20:29.953Z,13.20
2018-01-15T22:22:58.490Z,11.77
2018-01-15T22:25:26.822Z,11.40
2018-01-15T22:27:55.167Z,13.10
2018-01-15T22:30:23.774Z,13.40
2018-01-15T22:32:52.311Z,12.00
2018-01-15T22:35:23.993Z,11.60
2018-01-15T22:37:52.416Z,13.43
2018-01-15T22:40:20.835Z,11.93
2018-01-15T22:42:49.398Z,13.20
2018-01-15T22:45:18.290Z,13.83
2018-01-15T22:47:47.026Z,13.43
2018-01-15T22:50:15.554Z,12.83
2018-01-15T22:52:43.983Z,11.40
2018-01-15T22:55:12.337Z,12.87
2018-01-15T22:57:40.720Z,12.60
2018-01-15T23:00:09.179Z,11.30
2018-01-15T23:02:37.542Z,10.97
2018-01-15T23:05:05.903Z,11.77
2018-01-15T23:07:34.433Z,12.40
2018-01-15T23:10:02.712Z,11.73
2018-01-15T23:12:31.122Z,12.57
2018-01-15T23:14:59.397Z,11.87
2018-01-15T23:17:27.773Z,11.80
2018-01-15T23:19:56.308Z,13.20
2018-01-15T23:22:24.692Z,12.87
2018-01-15T23:24:53.050Z,13.00
2018-01-15T23:27:21.380Z,11.50
2018-01-15T23:29:49.811Z,13.03
2018-01-15T23:32:18.350Z,13.77
2018-01-15T23:34:46.779Z,13.43
2018-01-15T23:37:15.322Z,12.83
2018-01-15T23:39:43.710Z,14.73
2018-01-15T23:42:12.043Z,13.50
2018-01-15T23:44:40.742Z,13.60
2018-01-15T23:47:09.111Z,10.50
2018-01-15T23:49:37.433Z,13.70
2018-01-15T23:52:08.733Z,13.43
2018-01-15T23:54:37.011Z,13.47
2018-01-15T23:57:05.310Z,11.47
2018-01-15T23:59:33.610Z,14.57
